Hopkins, Minnesota
Current Conditions -  °F | °C
As of 10:53 AM on Sunday 23 Nov 2014 (Local Time) from KFCM Reporting Station
Haze Haze  
Wind Chill: 50°   Ceiling: 600
Heat Index: 50°   Visibility: 4mi
Dew Point: 48°   Wind: 5mph
Humidity: 93%   Direction: 280°W
Pressure: 29.43"   Gusts: NA
Location:  44.92°N, 93.41°W
Report Text: KFCM 231653Z 28004KT 4SM BR BKN006 OVC024 10/09 A2943 RMK AO2 CIG 005V009 SLP969 T01000089
Loading
Personal Weather Stations






























Interactive Weather Map New forecast layout! Learn more

10-Day Weather Forecast

Advertisements
Track Severe Weather on mobile